sensor_id;sensor_type;location;lat;lon;timestamp;pressure;altitude;pressure_sealevel;temperature;humidity
5651;BME280;40241;52.684;9.758;2023-03-05T00:01:38;101588.75;;;6.51;60.05
5651;BME280;40241;52.684;9.758;2023-03-05T00:04:08;101582.06;;;6.52;60.16
5651;BME280;40241;52.684;9.758;2023-03-05T00:06:34;101589.50;;;6.51;60.24
5651;BME280;40241;52.684;9.758;2023-03-05T00:09:00;101586.00;;;6.51;60.11
5651;BME280;40241;52.684;9.758;2023-03-05T00:11:27;101584.78;;;6.52;60.31
5651;BME280;40241;52.684;9.758;2023-03-05T00:13:54;101583.28;;;6.51;60.08
5651;BME280;40241;52.684;9.758;2023-03-05T00:16:20;101577.03;;;6.50;60.42
5651;BME280;40241;52.684;9.758;2023-03-05T00:18:46;101578.69;;;6.48;60.01
5651;BME280;40241;52.684;9.758;2023-03-05T00:21:22;101574.41;;;6.47;60.51
5651;BME280;40241;52.684;9.758;2023-03-05T00:23:49;101565.56;;;6.43;60.40
5651;BME280;40241;52.684;9.758;2023-03-05T00:26:18;101567.09;;;6.44;60.16
5651;BME280;40241;52.684;9.758;2023-03-05T00:28:44;101561.63;;;6.44;60.53
5651;BME280;40241;52.684;9.758;2023-03-05T00:31:21;101557.69;;;6.45;60.17
5651;BME280;40241;52.684;9.758;2023-03-05T00:33:54;101560.09;;;6.43;60.67
5651;BME280;40241;52.684;9.758;2023-03-05T00:36:19;101562.84;;;6.43;60.34
5651;BME280;40241;52.684;9.758;2023-03-05T00:38:45;101562.06;;;6.42;60.44
5651;BME280;40241;52.684;9.758;2023-03-05T00:41:10;101562.50;;;6.41;60.48
5651;BME280;40241;52.684;9.758;2023-03-05T00:43:36;101553.88;;;6.42;60.62
5651;BME280;40241;52.684;9.758;2023-03-05T00:46:01;101557.03;;;6.41;60.27
5651;BME280;40241;52.684;9.758;2023-03-05T00:48:27;101543.06;;;6.39;60.70
5651;BME280;40241;52.684;9.758;2023-03-05T00:50:52;101549.28;;;6.39;60.57
5651;BME280;40241;52.684;9.758;2023-03-05T00:53:18;101538.38;;;6.39;60.56
5651;BME280;40241;52.684;9.758;2023-03-05T00:55:43;101537.59;;;6.39;60.36
5651;BME280;40241;52.684;9.758;2023-03-05T00:58:09;101530.94;;;6.40;60.40
5651;BME280;40241;52.684;9.758;2023-03-05T01:00:35;101532.13;;;6.39;60.75
5651;BME280;40241;52.684;9.758;2023-03-05T01:03:01;101526.66;;;6.39;60.36
5651;BME280;40241;52.684;9.758;2023-03-05T01:05:26;101526.97;;;6.41;60.30
5651;BME280;40241;52.684;9.758;2023-03-05T01:07:52;101526.22;;;6.40;60.23
5651;BME280;40241;52.684;9.758;2023-03-05T01:10:18;101510.25;;;6.39;60.76
5651;BME280;40241;52.684;9.758;2023-03-05T01:12:44;101514.09;;;6.41;60.56
5651;BME280;40241;52.684;9.758;2023-03-05T01:15:09;101518.78;;;6.41;60.78
5651;BME280;40241;52.684;9.758;2023-03-05T01:17:34;101505.88;;;6.41;60.56
5651;BME280;40241;52.684;9.758;2023-03-05T01:20:00;101505.13;;;6.41;60.90
5651;BME280;40241;52.684;9.758;2023-03-05T01:22:25;101504.34;;;6.40;60.85
5651;BME280;40241;52.684;9.758;2023-03-05T01:24:50;101503.59;;;6.40;60.74
5651;BME280;40241;52.684;9.758;2023-03-05T01:27:16;101498.88;;;6.40;60.92
5651;BME280;40241;52.684;9.758;2023-03-05T01:29:41;101498.47;;;6.42;61.01
5651;BME280;40241;52.684;9.758;2023-03-05T01:32:06;101501.50;;;6.44;60.73
5651;BME280;40241;52.684;9.758;2023-03-05T01:34:32;101496.38;;;6.46;61.03
5651;BME280;40241;52.684;9.758;2023-03-05T01:36:57;101495.13;;;6.47;60.92
5651;BME280;40241;52.684;9.758;2023-03-05T01:39:22;101488.94;;;6.46;60.86
5651;BME280;40241;52.684;9.758;2023-03-05T01:41:48;101489.03;;;6.43;60.84
5651;BME280;40241;52.684;9.758;2023-03-05T01:44:20;101480.53;;;6.41;61.44
5651;BME280;40241;52.684;9.758;2023-03-05T01:46:46;101481.28;;;6.41;61.01
5651;BME280;40241;52.684;9.758;2023-03-05T01:49:19;101479.00;;;6.40;61.17
5651;BME280;40241;52.684;9.758;2023-03-05T01:51:57;101472.78;;;6.39;61.21
5651;BME280;40241;52.684;9.758;2023-03-05T01:54:28;101474.41;;;6.37;60.98
5651;BME280;40241;52.684;9.758;2023-03-05T01:56:58;101467.72;;;6.38;61.09
5651;BME280;40241;52.684;9.758;2023-03-05T01:59:25;101466.66;;;6.35;61.03
5651;BME280;40241;52.684;9.758;2023-03-05T02:01:54;101468.63;;;6.35;61.11
5651;BME280;40241;52.684;9.758;2023-03-05T02:04:20;101460.13;;;6.33;61.09
5651;BME280;40241;52.684;9.758;2023-03-05T02:06:48;101462.94;;;6.29;61.31
5651;BME280;40241;52.684;9.758;2023-03-05T02:09:14;101462.22;;;6.29;61.34
5651;BME280;40241;52.684;9.758;2023-03-05T02:11:40;101449.44;;;6.26;61.32
5651;BME280;40241;52.684;9.758;2023-03-05T02:14:06;101447.56;;;6.23;61.38
5651;BME280;40241;52.684;9.758;2023-03-05T02:16:32;101442.56;;;6.21;61.29
5651;BME280;40241;52.684;9.758;2023-03-05T02:19:05;101438.41;;;6.17;61.77
5651;BME280;40241;52.684;9.758;2023-03-05T02:21:40;101431.44;;;6.16;62.14
5651;BME280;40241;52.684;9.758;2023-03-05T02:24:09;101423.56;;;6.18;61.48
5651;BME280;40241;52.684;9.758;2023-03-05T02:26:35;101430.22;;;6.17;62.03
5651;BME280;40241;52.684;9.758;2023-03-05T02:29:02;101431.75;;;6.18;62.16
5651;BME280;40241;52.684;9.758;2023-03-05T02:31:29;101435.22;;;6.18;61.78
5651;BME280;40241;52.684;9.758;2023-03-05T02:33:55;101427.03;;;6.18;61.88
5651;BME280;40241;52.684;9.758;2023-03-05T02:36:21;101426.63;;;6.20;61.82
5651;BME280;40241;52.684;9.758;2023-03-05T02:38:47;101427.38;;;6.20;61.70
5651;BME280;40241;52.684;9.758;2023-03-05T02:41:13;101416.47;;;6.20;61.72
5651;BME280;40241;52.684;9.758;2023-03-05T02:43:38;101414.91;;;6.19;62.15
5651;BME280;40241;52.684;9.758;2023-03-05T02:46:04;101409.00;;;6.21;61.77
5651;BME280;40241;52.684;9.758;2023-03-05T02:48:29;101415.38;;;6.18;62.10
5651;BME280;40241;52.684;9.758;2023-03-05T02:50:55;101412.00;;;6.14;61.97
5651;BME280;40241;52.684;9.758;2023-03-05T02:53:20;101409.25;;;6.14;62.11
5651;BME280;40241;52.684;9.758;2023-03-05T02:55:48;101400.63;;;6.15;62.36
5651;BME280;40241;52.684;9.758;2023-03-05T02:58:14;101396.34;;;6.14;62.00
5651;BME280;40241;52.684;9.758;2023-03-05T03:00:40;101398.66;;;6.16;61.93
5651;BME280;40241;52.684;9.758;2023-03-05T03:03:06;101391.66;;;6.15;62.25
5651;BME280;40241;52.684;9.758;2023-03-05T03:05:31;101386.19;;;6.15;62.45
5651;BME280;40241;52.684;9.758;2023-03-05T03:07:56;101376.34;;;6.17;62.08
5651;BME280;40241;52.684;9.758;2023-03-05T03:10:22;101378.31;;;6.17;62.14
5651;BME280;40241;52.684;9.758;2023-03-05T03:12:47;101374.06;;;6.16;62.47
5651;BME280;40241;52.684;9.758;2023-03-05T03:15:14;101370.56;;;6.15;62.52
5651;BME280;40241;52.684;9.758;2023-03-05T03:17:39;101372.53;;;6.15;62.42
5651;BME280;40241;52.684;9.758;2023-03-05T03:20:08;101368.59;;;6.16;62.32
5651;BME280;40241;52.684;9.758;2023-03-05T03:22:34;101375.13;;;6.18;62.41
5651;BME280;40241;52.684;9.758;2023-03-05T03:25:00;101363.78;;;6.20;62.38
5651;BME280;40241;52.684;9.758;2023-03-05T03:27:25;101361.59;;;6.15;62.50
5651;BME280;40241;52.684;9.758;2023-03-05T03:29:50;101369.47;;;6.13;62.26
5651;BME280;40241;52.684;9.758;2023-03-05T03:32:16;101373.41;;;6.12;62.44
5651;BME280;40241;52.684;9.758;2023-03-05T03:34:41;101370.03;;;6.07;62.79
5651;BME280;40241;52.684;9.758;2023-03-05T03:37:07;101368.97;;;6.05;62.72
5651;BME280;40241;52.684;9.758;2023-03-05T03:39:33;101378.06;;;6.02;62.78
5651;BME280;40241;52.684;9.758;2023-03-05T03:41:58;101366.81;;;6.00;63.08
5651;BME280;40241;52.684;9.758;2023-03-05T03:44:23;101361.66;;;6.02;62.73
5651;BME280;40241;52.684;9.758;2023-03-05T03:46:49;101347.56;;;6.03;62.66
5651;BME280;40241;52.684;9.758;2023-03-05T03:49:19;101357.28;;;6.04;62.96
5651;BME280;40241;52.684;9.758;2023-03-05T03:51:46;101348.66;;;6.06;63.00
5651;BME280;40241;52.684;9.758;2023-03-05T03:54:12;101342.72;;;6.07;62.73
5651;BME280;40241;52.684;9.758;2023-03-05T03:56:38;101332.13;;;6.10;62.83
5651;BME280;40241;52.684;9.758;2023-03-05T03:59:03;101330.16;;;6.10;62.88
5651;BME280;40241;52.684;9.758;2023-03-05T04:01:29;101327.44;;;6.10;63.12
5651;BME280;40241;52.684;9.758;2023-03-05T04:03:54;101322.09;;;6.07;62.90
5651;BME280;40241;52.684;9.758;2023-03-05T04:06:19;101319.78;;;6.05;62.84
5651;BME280;40241;52.684;9.758;2023-03-05T04:08:45;101314.78;;;6.03;63.04
5651;BME280;40241;52.684;9.758;2023-03-05T04:11:10;101321.78;;;6.04;62.65
5651;BME280;40241;52.684;9.758;2023-03-05T04:13:36;101316.44;;;6.01;62.71
5651;BME280;40241;52.684;9.758;2023-03-05T04:16:01;101316.13;;;5.99;63.09
5651;BME280;40241;52.684;9.758;2023-03-05T04:18:26;101311.09;;;5.97;63.13
5651;BME280;40241;52.684;9.758;2023-03-05T04:20:52;101310.97;;;6.01;63.33
5651;BME280;40241;52.684;9.758;2023-03-05T04:23:17;101310.09;;;6.04;62.93
5651;BME280;40241;52.684;9.758;2023-03-05T04:25:42;101307.81;;;6.02;62.83
5651;BME280;40241;52.684;9.758;2023-03-05T04:28:08;101305.06;;;6.02;62.85
5651;BME280;40241;52.684;9.758;2023-03-05T04:30:33;101304.75;;;6.00;62.87
5651;BME280;40241;52.684;9.758;2023-03-05T04:32:59;101309.88;;;5.98;63.14
5651;BME280;40241;52.684;9.758;2023-03-05T04:35:24;101299.41;;;5.97;63.11
5651;BME280;40241;52.684;9.758;2023-03-05T04:37:49;101308.25;;;6.01;62.90
5651;BME280;40241;52.684;9.758;2023-03-05T04:40:15;101306.28;;;6.01;62.73
5651;BME280;40241;52.684;9.758;2023-03-05T04:42:41;101304.31;;;6.02;63.17
5651;BME280;40241;52.684;9.758;2023-03-05T04:45:07;101296.13;;;6.02;63.00
5651;BME280;40241;52.684;9.758;2023-03-05T04:47:33;101294.16;;;6.02;63.08
5651;BME280;40241;52.684;9.758;2023-03-05T04:49:58;101298.72;;;6.05;62.83
5651;BME280;40241;52.684;9.758;2023-03-05T04:52:23;101284.28;;;6.05;63.17
5651;BME280;40241;52.684;9.758;2023-03-05T04:54:49;101285.06;;;6.05;62.86
5651;BME280;40241;52.684;9.758;2023-03-05T04:57:15;101279.91;;;6.07;62.70
5651;BME280;40241;52.684;9.758;2023-03-05T04:59:40;101279.47;;;6.09;63.02
5651;BME280;40241;52.684;9.758;2023-03-05T05:02:06;101277.19;;;6.07;62.97
5651;BME280;40241;52.684;9.758;2023-03-05T05:04:31;101275.66;;;6.07;62.83
5651;BME280;40241;52.684;9.758;2023-03-05T05:06:57;101282.63;;;6.07;63.08
5651;BME280;40241;52.684;9.758;2023-03-05T05:09:24;101283.72;;;6.10;62.71
5651;BME280;40241;52.684;9.758;2023-03-05T05:11:49;101272.03;;;6.10;62.86
5651;BME280;40241;52.684;9.758;2023-03-05T05:14:15;101273.56;;;6.11;62.61
5651;BME280;40241;52.684;9.758;2023-03-05T05:16:40;101267.34;;;6.10;63.19
5651;BME280;40241;52.684;9.758;2023-03-05T05:19:05;101268.09;;;6.11;62.97
5651;BME280;40241;52.684;9.758;2023-03-05T05:21:32;101267.34;;;6.10;63.14
5651;BME280;40241;52.684;9.758;2023-03-05T05:23:58;101260.69;;;6.11;62.86
5651;BME280;40241;52.684;9.758;2023-03-05T05:26:23;101261.25;;;6.06;62.89
5651;BME280;40241;52.684;9.758;2023-03-05T05:28:48;101254.59;;;6.07;63.34
5651;BME280;40241;52.684;9.758;2023-03-05T05:31:15;101263.09;;;6.09;63.33
5651;BME280;40241;52.684;9.758;2023-03-05T05:33:41;101263.09;;;6.09;63.08
5651;BME280;40241;52.684;9.758;2023-03-05T05:36:09;101253.81;;;6.07;63.29
5651;BME280;40241;52.684;9.758;2023-03-05T05:38:35;101246.81;;;6.05;63.29
5651;BME280;40241;52.684;9.758;2023-03-05T05:41:08;101248.34;;;6.07;63.03
5651;BME280;40241;52.684;9.758;2023-03-05T05:43:34;101246.38;;;6.07;63.25
5651;BME280;40241;52.684;9.758;2023-03-05T05:46:01;101250.47;;;6.02;63.11
5651;BME280;40241;52.684;9.758;2023-03-05T05:48:28;101246.19;;;6.01;63.29
5651;BME280;40241;52.684;9.758;2023-03-05T05:50:54;101249.81;;;5.98;63.28
5651;BME280;40241;52.684;9.758;2023-03-05T05:53:20;101254.94;;;5.96;63.27
5651;BME280;40241;52.684;9.758;2023-03-05T05:55:45;101254.94;;;5.96;63.36
5651;BME280;40241;52.684;9.758;2023-03-05T05:58:10;101245.56;;;5.97;63.15
5651;BME280;40241;52.684;9.758;2023-03-05T06:00:37;101252.09;;;6.00;63.11
5651;BME280;40241;52.684;9.758;2023-03-05T06:03:02;101253.63;;;6.01;63.14
5651;BME280;40241;52.684;9.758;2023-03-05T06:05:28;101248.59;;;5.99;63.54
5651;BME280;40241;52.684;9.758;2023-03-05T06:07:53;101251.66;;;6.01;63.56
5651;BME280;40241;52.684;9.758;2023-03-05T06:10:18;101265.63;;;6.03;63.33
5651;BME280;40241;52.684;9.758;2023-03-05T06:12:44;101258.50;;;6.06;63.38
5651;BME280;40241;52.684;9.758;2023-03-05T06:15:09;101253.03;;;6.06;63.64
5651;BME280;40241;52.684;9.758;2023-03-05T06:17:35;101256.22;;;6.04;63.62
5651;BME280;40241;52.684;9.758;2023-03-05T06:20:00;101256.66;;;6.03;63.65
5651;BME280;40241;52.684;9.758;2023-03-05T06:22:26;101242.56;;;6.04;63.53
5651;BME280;40241;52.684;9.758;2023-03-05T06:24:51;101253.03;;;6.06;63.76
5651;BME280;40241;52.684;9.758;2023-03-05T06:27:16;101245.94;;;6.09;63.42
5651;BME280;40241;52.684;9.758;2023-03-05T06:29:42;101251.25;;;6.12;63.88
5651;BME280;40241;52.684;9.758;2023-03-05T06:32:07;101246.88;;;6.15;63.70
5651;BME280;40241;52.684;9.758;2023-03-05T06:34:33;101244.00;;;6.18;63.36
5651;BME280;40241;52.684;9.758;2023-03-05T06:36:58;101251.16;;;6.16;63.56
5651;BME280;40241;52.684;9.758;2023-03-05T06:39:23;101248.25;;;6.19;63.62
5651;BME280;40241;52.684;9.758;2023-03-05T06:41:50;101250.22;;;6.19;63.53
5651;BME280;40241;52.684;9.758;2023-03-05T06:44:16;101246.63;;;6.22;63.73
5651;BME280;40241;52.684;9.758;2023-03-05T06:46:41;101241.47;;;6.24;63.57
5651;BME280;40241;52.684;9.758;2023-03-05T06:49:06;101247.69;;;6.24;63.59
5651;BME280;40241;52.684;9.758;2023-03-05T06:51:35;101241.47;;;6.24;63.75
5651;BME280;40241;52.684;9.758;2023-03-05T06:54:10;101243.31;;;6.27;63.38
5651;BME280;40241;52.684;9.758;2023-03-05T06:56:37;101249.09;;;6.29;63.54
5651;BME280;40241;52.684;9.758;2023-03-05T06:59:04;101234.66;;;6.28;63.66
5651;BME280;40241;52.684;9.758;2023-03-05T07:01:30;101236.78;;;6.24;63.60
5651;BME280;40241;52.684;9.758;2023-03-05T07:03:55;101242.22;;;6.24;63.81
5651;BME280;40241;52.684;9.758;2023-03-05T07:06:25;101240.69;;;6.23;63.54
5651;BME280;40241;52.684;9.758;2023-03-05T07:08:54;101236.00;;;6.24;63.76
5651;BME280;40241;52.684;9.758;2023-03-05T07:11:21;101241.63;;;6.29;63.59
5651;BME280;40241;52.684;9.758;2023-03-05T07:13:46;101243.78;;;6.34;63.30
5651;BME280;40241;52.684;9.758;2023-03-05T07:16:14;101240.16;;;6.37;63.40
5651;BME280;40241;52.684;9.758;2023-03-05T07:18:40;101246.06;;;6.36;63.82
5651;BME280;40241;52.684;9.758;2023-03-05T07:21:07;101243.63;;;6.38;63.68
5651;BME280;40241;52.684;9.758;2023-03-05T07:23:34;101236.66;;;6.37;63.43
5651;BME280;40241;52.684;9.758;2023-03-05T07:26:01;101242.44;;;6.39;63.81
5651;BME280;40241;52.684;9.758;2023-03-05T07:28:27;101235.44;;;6.38;63.66
5651;BME280;40241;52.684;9.758;2023-03-05T07:30:57;101243.97;;;6.40;63.95
5651;BME280;40241;52.684;9.758;2023-03-05T07:33:24;101228.94;;;6.35;63.88
5651;BME280;40241;52.684;9.758;2023-03-05T07:35:49;101242.91;;;6.37;63.75
5651;BME280;40241;52.684;9.758;2023-03-05T07:38:15;101226.34;;;6.41;63.84
5651;BME280;40241;52.684;9.758;2023-03-05T07:40:40;101227.75;;;6.45;63.71
5651;BME280;40241;52.684;9.758;2023-03-05T07:43:05;101232.00;;;6.46;63.70
5651;BME280;40241;52.684;9.758;2023-03-05T07:45:31;101223.81;;;6.46;63.70
5651;BME280;40241;52.684;9.758;2023-03-05T07:47:56;101229.13;;;6.50;63.68
5651;BME280;40241;52.684;9.758;2023-03-05T07:50:22;101223.97;;;6.52;63.63
5651;BME280;40241;52.684;9.758;2023-03-05T07:52:47;101224.88;;;6.49;63.70
5651;BME280;40241;52.684;9.758;2023-03-05T07:55:12;101223.97;;;6.52;63.71
5651;BME280;40241;52.684;9.758;2023-03-05T07:57:38;101213.66;;;6.56;64.13
5651;BME280;40241;52.684;9.758;2023-03-05T08:00:05;101225.84;;;6.64;63.91
5651;BME280;40241;52.684;9.758;2023-03-05T08:02:31;101225.72;;;6.67;63.47
5651;BME280;40241;52.684;9.758;2023-03-05T08:04:56;101223.59;;;6.71;63.65
5651;BME280;40241;52.684;9.758;2023-03-05T08:07:21;101222.53;;;6.78;63.67
5651;BME280;40241;52.684;9.758;2023-03-05T08:09:47;101231.50;;;6.78;63.48
5651;BME280;40241;52.684;9.758;2023-03-05T08:12:12;101218.16;;;6.80;63.89
5651;BME280;40241;52.684;9.758;2023-03-05T08:14:37;101226.03;;;6.78;63.58
5651;BME280;40241;52.684;9.758;2023-03-05T08:17:04;101220.13;;;6.80;63.67
5651;BME280;40241;52.684;9.758;2023-03-05T08:19:30;101227.69;;;6.76;63.71
5651;BME280;40241;52.684;9.758;2023-03-05T08:21:55;101215.84;;;6.70;63.46
5651;BME280;40241;52.684;9.758;2023-03-05T08:24:21;101218.28;;;6.68;63.31
5651;BME280;40241;52.684;9.758;2023-03-05T08:26:53;101223.78;;;6.77;63.72
5651;BME280;40241;52.684;9.758;2023-03-05T08:29:18;101216.59;;;6.79;63.65
5651;BME280;40241;52.684;9.758;2023-03-05T08:31:45;101216.94;;;6.91;63.52
5651;BME280;40241;52.684;9.758;2023-03-05T08:34:11;101212.41;;;7.06;63.43
5651;BME280;40241;52.684;9.758;2023-03-05T08:36:36;101217.47;;;7.16;63.56
5651;BME280;40241;52.684;9.758;2023-03-05T08:39:02;101215.34;;;7.20;62.95
5651;BME280;40241;52.684;9.758;2023-03-05T08:41:31;101213.50;;;7.26;63.43
5651;BME280;40241;52.684;9.758;2023-03-05T08:43:57;101208.03;;;7.35;63.48
5651;BME280;40241;52.684;9.758;2023-03-05T08:46:23;101207.28;;;7.44;62.83
5651;BME280;40241;52.684;9.758;2023-03-05T08:48:48;101202.88;;;7.46;62.77
5651;BME280;40241;52.684;9.758;2023-03-05T08:51:21;101208.34;;;7.55;62.64
5651;BME280;40241;52.684;9.758;2023-03-05T08:53:47;101206.81;;;7.54;62.62
5651;BME280;40241;52.684;9.758;2023-03-05T08:56:13;101197.38;;;7.55;62.86
5651;BME280;40241;52.684;9.758;2023-03-05T08:58:39;101204.84;;;7.55;62.79
5651;BME280;40241;52.684;9.758;2023-03-05T09:01:05;101203.00;;;7.61;62.86
5651;BME280;40241;52.684;9.758;2023-03-05T09:03:30;101194.59;;;7.74;62.94
5651;BME280;40241;52.684;9.758;2023-03-05T09:06:00;101187.75;;;7.78;62.75
5651;BME280;40241;52.684;9.758;2023-03-05T09:08:26;101186.09;;;7.81;62.63
5651;BME280;40241;52.684;9.758;2023-03-05T09:10:53;101187.75;;;7.87;62.54
5651;BME280;40241;52.684;9.758;2023-03-05T09:13:18;101179.69;;;7.93;62.28
5651;BME280;40241;52.684;9.758;2023-03-05T09:15:43;101184.97;;;7.96;62.38
5651;BME280;40241;52.684;9.758;2023-03-05T09:18:08;101183.00;;;7.97;62.33
5651;BME280;40241;52.684;9.758;2023-03-05T09:20:35;101178.41;;;8.03;62.37
5651;BME280;40241;52.684;9.758;2023-03-05T09:23:00;101181.44;;;8.14;62.15
5651;BME280;40241;52.684;9.758;2023-03-05T09:25:25;101182.50;;;8.16;62.07
5651;BME280;40241;52.684;9.758;2023-03-05T09:27:51;101184.75;;;8.18;62.05
5651;BME280;40241;52.684;9.758;2023-03-05T09:30:16;101170.59;;;8.19;61.48
5651;BME280;40241;52.684;9.758;2023-03-05T09:32:42;101181.91;;;8.12;61.36
5651;BME280;40241;52.684;9.758;2023-03-05T09:35:07;101187.38;;;8.12;61.45
5651;BME280;40241;52.684;9.758;2023-03-05T09:37:33;101178.06;;;8.19;61.65
5651;BME280;40241;52.684;9.758;2023-03-05T09:39:58;101183.56;;;8.19;61.52
5651;BME280;40241;52.684;9.758;2023-03-05T09:42:27;101183.41;;;8.13;61.42
5651;BME280;40241;52.684;9.758;2023-03-05T09:55:46;101178.09;;;8.10;61.31
5651;BME280;40241;52.684;9.758;2023-03-05T09:58:24;101180.38;;;8.11;61.33
5651;BME280;40241;52.684;9.758;2023-03-05T10:00:54;101184.00;;;8.17;61.51
5651;BME280;40241;52.684;9.758;2023-03-05T10:03:24;101176.53;;;8.27;61.55
5651;BME280;40241;52.684;9.758;2023-03-05T10:06:04;101173.56;;;8.40;61.05
5651;BME280;40241;52.684;9.758;2023-03-05T10:08:45;101180.38;;;8.53;60.42
5651;BME280;40241;52.684;9.758;2023-03-05T10:11:42;101169.94;;;8.66;60.35
5651;BME280;40241;52.684;9.758;2023-03-05T10:14:13;101168.94;;;8.78;60.30
5651;BME280;40241;52.684;9.758;2023-03-05T10:21:52;101156.97;;;8.90;59.54
5651;BME280;40241;52.684;9.758;2023-03-05T10:27:07;101155.69;;;9.00;60.28
5651;BME280;40241;52.684;9.758;2023-03-05T10:35:09;101139.63;;;9.08;58.78
5651;BME280;40241;52.684;9.758;2023-03-05T10:37:55;101134.97;;;8.99;59.12
5651;BME280;40241;52.684;9.758;2023-03-05T10:40:39;101128.44;;;8.97;59.47
5651;BME280;40241;52.684;9.758;2023-03-05T10:45:59;101128.88;;;8.95;59.56
5651;BME280;40241;52.684;9.758;2023-03-05T10:48:36;101128.59;;;8.93;59.42
5651;BME280;40241;52.684;9.758;2023-03-05T10:51:27;101128.31;;;8.91;58.47
5651;BME280;40241;52.684;9.758;2023-03-05T10:56:26;101124.59;;;8.80;59.30
5651;BME280;40241;52.684;9.758;2023-03-05T10:58:53;101122.69;;;8.71;59.18
5651;BME280;40241;52.684;9.758;2023-03-05T11:01:25;101116.00;;;8.63;59.07
5651;BME280;40241;52.684;9.758;2023-03-05T11:09:15;101109.66;;;8.57;58.75
5651;BME280;40241;52.684;9.758;2023-03-05T11:11:40;101088.88;;;8.65;59.13
5651;BME280;40241;52.684;9.758;2023-03-05T11:14:22;101098.78;;;8.63;58.62
5651;BME280;40241;52.684;9.758;2023-03-05T11:16:48;101094.88;;;8.78;59.55
5651;BME280;40241;52.684;9.758;2023-03-05T11:19:20;101102.28;;;8.87;58.79
5651;BME280;40241;52.684;9.758;2023-03-05T11:22:15;101094.25;;;8.98;58.69
5651;BME280;40241;52.684;9.758;2023-03-05T11:24:40;101094.59;;;9.15;59.04
5651;BME280;40241;52.684;9.758;2023-03-05T11:27:43;101091.75;;;9.24;57.50
5651;BME280;40241;52.684;9.758;2023-03-05T11:30:18;101103.75;;;9.26;58.64
5651;BME280;40241;52.684;9.758;2023-03-05T11:32:44;101093.09;;;9.43;58.62
5651;BME280;40241;52.684;9.758;2023-03-05T11:35:28;101079.91;;;9.61;56.60
5651;BME280;40241;52.684;9.758;2023-03-05T11:38:05;101084.94;;;9.77;57.42
5651;BME280;40241;52.684;9.758;2023-03-05T11:40:32;101084.34;;;9.88;57.74
5651;BME280;40241;52.684;9.758;2023-03-05T11:43:02;101081.50;;;9.82;56.45
5651;BME280;40241;52.684;9.758;2023-03-05T11:45:30;101070.13;;;9.75;57.00
5651;BME280;40241;52.684;9.758;2023-03-05T11:48:01;101071.84;;;9.87;56.50
5651;BME280;40241;52.684;9.758;2023-03-05T11:50:32;101062.22;;;9.97;56.61
5651;BME280;40241;52.684;9.758;2023-03-05T11:53:02;101060.44;;;9.94;56.25
5651;BME280;40241;52.684;9.758;2023-03-05T11:55:44;101072.56;;;9.88;54.42
5651;BME280;40241;52.684;9.758;2023-03-05T11:58:34;101056.19;;;9.93;55.92
5651;BME280;40241;52.684;9.758;2023-03-05T12:01:02;101049.44;;;9.94;56.89
5651;BME280;40241;52.684;9.758;2023-03-05T12:03:35;101046.63;;;9.89;56.17
5651;BME280;40241;52.684;9.758;2023-03-05T12:08:40;101037.16;;;9.75;56.74
5651;BME280;40241;52.684;9.758;2023-03-05T12:11:19;101035.38;;;9.72;56.00
5651;BME280;40241;52.684;9.758;2023-03-05T12:13:49;101030.84;;;9.69;56.92
5651;BME280;40241;52.684;9.758;2023-03-05T12:16:23;101023.72;;;9.77;56.85
5651;BME280;40241;52.684;9.758;2023-03-05T12:21:40;101016.03;;;10.36;55.73
5651;BME280;40241;52.684;9.758;2023-03-05T12:35:55;100989.41;;;10.68;55.42
5651;BME280;40241;52.684;9.758;2023-03-05T12:40:30;100977.75;;;10.52;54.70
5651;BME280;40241;52.684;9.758;2023-03-05T12:43:01;100976.75;;;10.55;55.53
5651;BME280;40241;52.684;9.758;2023-03-05T12:45:32;100971.75;;;10.54;54.78
5651;BME280;40241;52.684;9.758;2023-03-05T12:57:56;100972.03;;;10.16;54.75
5651;BME280;40241;52.684;9.758;2023-03-05T13:00:52;100964.81;;;10.18;54.05
5651;BME280;40241;52.684;9.758;2023-03-05T13:03:31;100958.94;;;10.51;55.25
5651;BME280;40241;52.684;9.758;2023-03-05T13:05:58;100959.59;;;10.66;55.06
5651;BME280;40241;52.684;9.758;2023-03-05T13:08:28;100961.91;;;10.68;55.19
5651;BME280;40241;52.684;9.758;2023-03-05T13:11:05;100950.63;;;10.66;54.74
5651;BME280;40241;52.684;9.758;2023-03-05T13:13:36;100952.00;;;10.55;55.09
5651;BME280;40241;52.684;9.758;2023-03-05T13:16:02;100954.72;;;10.50;55.03
5651;BME280;40241;52.684;9.758;2023-03-05T13:18:29;100941.00;;;10.55;54.92
5651;BME280;40241;52.684;9.758;2023-03-05T13:21:25;100940.47;;;10.77;52.47
5651;BME280;40241;52.684;9.758;2023-03-05T13:23:57;100944.41;;;10.96;54.13
5651;BME280;40241;52.684;9.758;2023-03-05T13:26:35;100937.38;;;10.95;53.17
5651;BME280;40241;52.684;9.758;2023-03-05T13:31:29;100930.34;;;10.94;54.31
5651;BME280;40241;52.684;9.758;2023-03-05T13:33:57;100935.66;;;10.98;54.82
5651;BME280;40241;52.684;9.758;2023-03-05T13:36:24;100935.31;;;11.16;54.66
5651;BME280;40241;52.684;9.758;2023-03-05T13:38:51;100917.16;;;11.04;52.97
5651;BME280;40241;52.684;9.758;2023-03-05T13:41:23;100918.00;;;10.84;53.75
5651;BME280;40241;52.684;9.758;2023-03-05T13:43:55;100918.66;;;10.74;53.86
5651;BME280;40241;52.684;9.758;2023-03-05T13:46:26;100913.06;;;10.63;54.07
5651;BME280;40241;52.684;9.758;2023-03-05T13:48:52;100913.03;;;10.57;54.37
5651;BME280;40241;52.684;9.758;2023-03-05T13:51:17;100912.25;;;10.57;54.44
5651;BME280;40241;52.684;9.758;2023-03-05T13:53:43;100916.03;;;10.59;54.67
5651;BME280;40241;52.684;9.758;2023-03-05T13:56:14;100910.16;;;10.72;54.42
5651;BME280;40241;52.684;9.758;2023-03-05T13:58:56;100904.16;;;10.73;54.42
5651;BME280;40241;52.684;9.758;2023-03-05T14:01:26;100903.44;;;10.78;54.40
5651;BME280;40241;52.684;9.758;2023-03-05T14:03:54;100895.28;;;10.89;54.58
5651;BME280;40241;52.684;9.758;2023-03-05T14:06:23;100892.00;;;10.85;54.30
5651;BME280;40241;52.684;9.758;2023-03-05T14:09:19;100885.66;;;10.74;53.15
5651;BME280;40241;52.684;9.758;2023-03-05T14:14:22;100880.31;;;10.65;54.75
5651;BME280;40241;52.684;9.758;2023-03-05T14:16:48;100886.78;;;10.62;54.70
5651;BME280;40241;52.684;9.758;2023-03-05T14:19:32;100874.72;;;10.53;54.09
5651;BME280;40241;52.684;9.758;2023-03-05T14:21:59;100869.91;;;10.48;54.86
5651;BME280;40241;52.684;9.758;2023-03-05T14:24:25;100868.34;;;10.42;54.97